Time;durP1;ratioP1;P1;durP2;ratioP2;P2;SDS_P1;SDS_P2;PMS_P1;PMS_P2;Temp;Humidity;BMP_temperature;BMP_pressure;BME280_temperature;BME280_humidity;BME280_pressure;Samples;Min_cycle;Max_cycle;Signal;HPM_P1;HPM_P2
2023/01/01 00:01:39;;;;;;;161.40;118.50;;;;;;;7.19;100.00;99279.91;106023;1282;59008;-74
2023/01/01 00:04:09;;;;;;;158.60;120.60;;;;;;;7.14;100.00;99282.29;106046;1287;59059;-74
2023/01/01 00:06:35;;;;;;;171.70;126.80;;;;;;;7.07;100.00;99285.77;106061;1288;58927;-73
2023/01/01 00:11:46;;;;;;;163.60;120.30;;;;;;;6.96;100.00;99297.59;106021;1288;69390;-73
2023/01/01 00:14:13;;;;;;;158.40;119.30;;;;;;;6.92;100.00;99302.58;106031;1281;58948;-73
2023/01/01 00:16:39;;;;;;;148.30;113.50;;;;;;;6.87;100.00;99309.88;106032;1288;58937;-73
2023/01/01 00:19:05;;;;;;;138.00;105.50;;;;;;;6.79;100.00;99302.81;105915;1299;58880;-73
2023/01/01 00:21:32;;;;;;;142.20;104.30;;;;;;;6.73;100.00;99304.48;106045;1289;59182;-73
2023/01/01 00:23:58;;;;;;;132.70;103.30;;;;;;;6.71;100.00;99309.33;106046;1288;59292;-72
2023/01/01 00:26:24;;;;;;;133.40;102.00;;;;;;;6.70;100.00;99306.04;106040;1281;58868;-74
2023/01/01 00:28:50;;;;;;;123.10;98.10;;;;;;;6.68;100.00;99308.96;106032;1287;59065;-74
2023/01/01 00:31:19;;;;;;;130.00;102.00;;;;;;;6.68;100.00;99305.25;106063;1288;58914;-74
2023/01/01 00:33:50;;;;;;;137.80;103.10;;;;;;;6.66;100.00;99305.00;106038;1284;65740;-74
2023/01/01 00:36:17;;;;;;;131.30;100.60;;;;;;;6.61;100.00;99303.64;106042;1288;60972;-74
2023/01/01 00:38:44;;;;;;;131.30;100.10;;;;;;;6.56;100.00;99297.32;106043;1281;64029;-73
2023/01/01 00:41:12;;;;;;;133.30;98.90;;;;;;;6.53;100.00;99299.58;106053;1281;59006;-73
2023/01/01 00:43:38;;;;;;;124.80;94.90;;;;;;;6.49;100.00;99298.55;106063;1288;59126;-73
2023/01/01 00:46:06;;;;;;;129.00;99.90;;;;;;;6.45;100.00;99299.95;105759;1292;59032;-74
2023/01/01 00:48:33;;;;;;;129.70;100.00;;;;;;;6.38;100.00;99299.02;105884;1291;61000;-74
2023/01/01 00:50:59;;;;;;;130.30;103.00;;;;;;;6.30;100.00;99296.22;106044;1288;65005;-74
2023/01/01 00:53:25;;;;;;;137.80;107.40;;;;;;;6.22;100.00;99296.95;105849;1295;58946;-75
2023/01/01 00:55:52;;;;;;;148.30;113.70;;;;;;;6.11;100.00;99297.05;106058;1288;59305;-74
2023/01/01 00:58:18;;;;;;;153.20;117.70;;;;;;;6.03;100.00;99295.99;105774;1294;59033;-74
2023/01/01 01:00:45;;;;;;;155.60;122.90;;;;;;;5.95;100.00;99303.71;106045;1281;58883;-73
2023/01/01 01:03:26;;;;;;;157.50;122.50;;;;;;;5.89;100.00;99308.04;105878;1284;59037;-73
2023/01/01 01:06:15;;;;;;;164.20;127.10;;;;;;;5.84;100.00;99309.85;106034;1281;59864;-74
2023/01/01 01:08:44;;;;;;;165.60;126.70;;;;;;;5.79;100.00;99301.77;105847;1285;59264;-75
2023/01/01 01:11:19;;;;;;;;;;;;;;;5.76;100.00;99298.73;106061;1288;67138;-74
2023/01/01 01:13:47;;;;;;;161.60;124.00;;;;;;;5.70;100.00;99296.13;106065;1288;59912;-75
2023/01/01 01:16:16;;;;;;;175.80;131.60;;;;;;;5.67;100.00;99301.40;106049;1288;65284;-75
2023/01/01 01:18:43;;;;;;;169.80;127.90;;;;;;;5.65;100.00;99302.33;106047;1289;58918;-73
2023/01/01 01:21:10;;;;;;;165.70;129.60;;;;;;;5.68;100.00;99302.55;106098;1287;58985;-74
2023/01/01 01:23:36;;;;;;;175.50;135.40;;;;;;;5.68;100.00;99295.50;106023;1289;67014;-74
2023/01/01 01:26:12;;;;;;;159.60;123.30;;;;;;;5.67;100.00;99296.10;106037;1282;59048;-73
2023/01/01 01:28:38;;;;;;;159.20;125.50;;;;;;;5.63;100.00;99294.30;106034;1280;71979;-74
2023/01/01 01:31:04;;;;;;;159.20;122.80;;;;;;;5.60;100.00;99293.94;106057;1288;58918;-73
2023/01/01 01:33:31;;;;;;;148.70;114.80;;;;;;;5.55;100.00;99300.48;106055;1285;58978;-73
2023/01/01 01:35:57;;;;;;;164.70;121.30;;;;;;;5.47;100.00;99298.86;106060;1288;58940;-73
2023/01/01 01:38:23;;;;;;;157.00;118.80;;;;;;;5.46;100.00;99298.21;106075;1281;58948;-74
2023/01/01 01:40:50;;;;;;;160.50;122.40;;;;;;;5.45;100.00;99292.76;106060;1288;58931;-75
2023/01/01 01:43:49;;;;;;;158.20;118.90;;;;;;;5.41;100.00;99294.19;105877;1291;58975;-74
2023/01/01 01:46:19;;;;;;;148.80;116.60;;;;;;;5.37;100.00;99299.10;106052;1288;58859;-74
2023/01/01 01:48:48;;;;;;;148.10;116.70;;;;;;;5.32;100.00;99299.47;106041;1288;65901;-74
2023/01/01 01:51:18;;;;;;;149.10;116.20;;;;;;;5.31;100.00;99301.11;105761;1287;60879;-74
2023/01/01 01:53:48;;;;;;;;;;;;;;;5.32;100.00;99302.66;106072;1292;64944;-73
2023/01/01 01:56:20;;;;;;;144.90;111.60;;;;;;;5.32;100.00;99304.08;106053;1288;58909;-73
2023/01/01 01:58:46;;;;;;;153.00;114.60;;;;;;;5.33;100.00;99293.44;106087;1287;59065;-74
2023/01/01 02:01:13;;;;;;;155.80;118.70;;;;;;;5.35;100.00;99290.38;106089;1288;66914;-73
2023/01/01 02:03:45;;;;;;;150.30;117.30;;;;;;;5.34;100.00;99288.83;106048;1288;59065;-73
2023/01/01 02:06:12;;;;;;;147.70;115.00;;;;;;;5.29;100.00;99289.19;106056;1285;65006;-73
2023/01/01 02:08:38;;;;;;;153.30;116.80;;;;;;;5.24;100.00;99285.16;106061;1290;58851;-74
2023/01/01 02:11:04;;;;;;;146.20;113.70;;;;;;;5.21;100.00;99281.79;106051;1288;58936;-75
2023/01/01 02:13:30;;;;;;;161.20;121.60;;;;;;;5.16;100.00;99280.41;106067;1288;59060;-74
2023/01/01 02:16:12;;;;;;;153.50;121.10;;;;;;;5.13;100.00;99277.38;106040;1282;59021;-74
2023/01/01 02:18:48;;;;;;;156.20;119.20;;;;;;;5.11;100.00;99281.46;105830;1292;73275;-74
2023/01/01 02:21:34;;;;;;;172.80;126.80;;;;;;;5.08;100.00;99278.42;106044;1281;59030;-74
2023/01/01 02:24:15;;;;;;;203.80;129.00;;;;;;;5.04;100.00;99269.79;105905;1283;58839;-75
2023/01/01 02:26:57;;;;;;;175.20;120.70;;;;;;;4.98;100.00;99269.14;106051;1288;67103;-72
2023/01/01 02:29:49;;;;;;;159.30;113.90;;;;;;;4.95;100.00;99266.43;106050;1288;60793;-73
2023/01/01 02:32:27;;;;;;;135.90;103.80;;;;;;;4.90;100.00;99267.55;106038;1288;64761;-73
2023/01/01 02:38:11;;;;;;;126.20;91.70;;;;;;;4.85;100.00;99257.33;105558;1294;59046;-73
2023/01/01 02:40:43;;;;;;;124.40;92.00;;;;;;;4.89;100.00;99254.54;105552;1288;66868;-74
2023/01/01 02:43:09;;;;;;;134.10;97.20;;;;;;;4.94;100.00;99254.15;105492;1296;60745;-73
2023/01/01 02:45:36;;;;;;;130.90;92.10;;;;;;;5.01;100.00;99255.11;105552;1297;59138;-73
2023/01/01 02:48:27;;;;;;;143.50;103.00;;;;;;;5.08;100.00;99257.64;105572;1295;59183;-73
2023/01/01 02:50:58;;;;;;;140.40;100.10;;;;;;;5.17;100.00;99266.09;105574;1294;58927;-73
2023/01/01 02:53:35;;;;;;;141.10;102.50;;;;;;;5.26;100.00;99266.08;105566;1295;67043;-74
2023/01/01 02:56:17;;;;;;;131.10;96.40;;;;;;;5.33;100.00;99266.31;104838;1294;1002509;-73
2023/01/01 03:02:20;;;;;;;155.50;112.80;;;;;;;5.42;100.00;99270.86;105557;1295;59267;-73
2023/01/01 03:04:50;;;;;;;142.00;104.10;;;;;;;5.41;100.00;99266.14;105545;1295;58930;-73
2023/01/01 03:07:23;;;;;;;;;;;;;;;5.43;100.00;99266.10;105574;1297;67138;-74
2023/01/01 03:10:25;;;;;;;144.30;104.00;;;;;;;5.41;100.00;99267.77;105545;1294;59896;-74
2023/01/01 03:12:59;;;;;;;149.40;110.30;;;;;;;5.40;100.00;99269.90;105148;1297;64859;-74
2023/01/01 03:15:53;;;;;;;144.00;104.70;;;;;;;5.37;100.00;99274.44;105499;1294;59033;-74
2023/01/01 03:18:38;;;;;;;147.60;110.30;;;;;;;5.32;100.00;99275.36;105546;1290;58956;-74
2023/01/01 03:21:06;;;;;;;139.50;105.20;;;;;;;5.27;100.00;99270.27;105493;1298;65906;-74
2023/01/01 03:23:39;;;;;;;151.20;112.50;;;;;;;5.22;100.00;99270.80;105514;1290;59857;-75
2023/01/01 03:26:09;;;;;;;159.20;115.70;;;;;;;5.17;100.00;99276.33;105306;1300;63960;-74
2023/01/01 03:28:58;;;;;;;146.40;107.30;;;;;;;5.11;100.00;99285.73;105536;1295;59111;-74
2023/01/01 03:31:25;;;;;;;144.40;105.30;;;;;;;5.07;100.00;99287.98;105543;1303;58957;-74
2023/01/01 03:34:00;;;;;;;150.10;113.60;;;;;;;5.06;100.00;99295.03;105508;1296;65810;-74
2023/01/01 03:36:34;;;;;;;151.50;110.10;;;;;;;5.04;100.00;99299.19;105516;1289;59742;-74
2023/01/01 03:39:11;;;;;;;142.00;106.30;;;;;;;5.01;100.00;99299.30;105491;1297;65022;-74
2023/01/01 03:41:43;;;;;;;151.10;110.90;;;;;;;4.99;100.00;99303.27;105350;1291;59150;-74
2023/01/01 03:44:56;;;;;;;144.60;106.40;;;;;;;4.93;100.00;99300.16;105510;1288;59005;-74
2023/01/01 03:47:23;;;;;;;150.80;110.10;;;;;;;4.82;100.00;99300.21;104691;1302;65928;-74
2023/01/01 03:49:49;;;;;;;151.00;107.70;;;;;;;4.73;100.00;99298.65;104971;1303;61347;-74
2023/01/01 03:52:34;;;;;;;152.20;110.50;;;;;;;4.66;100.00;99302.59;104956;1303;58959;-74
2023/01/01 03:55:07;;;;;;;147.30;106.60;;;;;;;4.59;100.00;99294.05;104977;1303;58858;-74
2023/01/01 03:58:01;;;;;;;136.00;104.70;;;;;;;4.57;100.00;99302.38;104913;1301;59064;-74
2023/01/01 04:00:39;;;;;;;154.60;114.90;;;;;;;4.55;100.00;99312.68;104983;1294;67050;-74
2023/01/01 04:03:21;;;;;;;154.60;115.80;;;;;;;4.55;100.00;99323.23;104992;1302;59941;-74
2023/01/01 04:05:47;;;;;;;155.00;110.50;;;;;;;4.56;100.00;99314.95;104684;1309;65071;-74
2023/01/01 04:08:14;;;;;;;149.20;110.10;;;;;;;4.57;100.00;99305.89;104971;1302;58975;-74
2023/01/01 04:10:46;;;;;;;144.20;105.10;;;;;;;4.58;100.00;99305.88;104958;1304;59352;-74
2023/01/01 04:13:12;;;;;;;143.20;106.30;;;;;;;4.57;100.00;99305.75;104948;1294;67041;-74
2023/01/01 04:15:38;;;;;;;141.70;106.00;;;;;;;4.53;100.00;99311.36;104959;1302;59130;-74
2023/01/01 04:18:05;;;;;;;141.70;103.50;;;;;;;4.47;100.00;99311.92;104950;1310;65057;-74
2023/01/01 04:20:31;;;;;;;134.40;100.00;;;;;;;4.40;100.00;99306.18;104959;1301;58941;-75
2023/01/01 04:22:59;;;;;;;137.80;102.40;;;;;;;4.33;100.00;99308.71;104945;1302;59059;-73
2023/01/01 04:25:27;;;;;;;142.80;104.90;;;;;;;4.28;100.00;99318.96;105807;1281;66969;-73
2023/01/01 04:27:54;;;;;;;145.20;105.00;;;;;;;4.22;100.00;99318.47;106041;1281;60757;-74
2023/01/01 04:30:20;;;;;;;150.50;106.40;;;;;;;4.20;100.00;99315.73;106069;1281;58978;-75
2023/01/01 04:32:47;;;;;;;149.20;109.80;;;;;;;4.21;100.00;99320.23;105636;1296;58949;-75
2023/01/01 04:35:14;;;;;;;135.90;102.10;;;;;;;4.23;100.00;99319.66;106050;1289;59184;-75
2023/01/01 04:37:41;;;;;;;155.90;111.10;;;;;;;4.23;100.00;99312.44;106066;1289;67136;-75
2023/01/01 04:40:09;;;;;;;155.10;111.50;;;;;;;4.26;100.00;99307.07;106054;1288;60006;-74
2023/01/01 04:42:36;;;;;;;154.30;146.90;;;;;;;4.27;100.00;99302.64;106051;1289;65051;-74
2023/01/01 04:45:03;;;;;;;162.10;119.70;;;;;;;4.30;100.00;99299.52;106039;1282;58807;-74
2023/01/01 04:47:29;;;;;;;170.00;126.00;;;;;;;4.34;100.00;99307.84;106070;1288;59211;-74
2023/01/01 04:49:55;;;;;;;178.70;130.50;;;;;;;4.37;100.00;99318.11;106063;1289;59027;-75
2023/01/01 04:52:21;;;;;;;178.40;129.30;;;;;;;4.40;100.00;99314.64;106031;1289;58992;-75
2023/01/01 04:54:48;;;;;;;175.40;126.40;;;;;;;4.45;100.00;99330.84;106020;1289;59092;-75
2023/01/01 04:57:16;;;;;;;177.10;129.90;;;;;;;4.51;100.00;99336.24;106020;1288;58998;-75
2023/01/01 04:59:42;;;;;;;176.60;128.90;;;;;;;4.57;100.00;99331.98;106041;1288;58926;-75
2023/01/01 05:02:09;;;;;;;178.90;129.70;;;;;;;4.63;100.00;99333.33;106056;1287;58883;-74
2023/01/01 05:04:35;;;;;;;169.60;128.20;;;;;;;4.68;100.00;99328.59;106044;1288;60072;-74
2023/01/01 05:07:01;;;;;;;173.30;128.30;;;;;;;4.72;100.00;99325.42;106066;1282;58899;-74
2023/01/01 05:09:28;;;;;;;164.10;121.30;;;;;;;4.76;100.00;99326.16;106044;1288;59034;-74
2023/01/01 05:11:54;;;;;;;159.40;120.90;;;;;;;4.79;100.00;99332.71;106067;1288;58775;-74
2023/01/01 05:14:20;;;;;;;150.90;111.70;;;;;;;4.83;100.00;99329.95;106076;1281;59061;-74
2023/01/01 05:16:46;;;;;;;145.10;105.00;;;;;;;4.83;100.00;99329.38;106049;1288;58913;-74
2023/01/01 05:19:12;;;;;;;132.50;96.70;;;;;;;4.83;100.00;99327.12;106041;1289;58992;-72
2023/01/01 05:21:39;;;;;;;132.90;98.80;;;;;;;4.83;100.00;99329.40;106066;1281;59283;-74
2023/01/01 05:24:08;;;;;;;133.20;95.00;;;;;;;4.84;100.00;99336.04;106057;1283;58786;-74
2023/01/01 05:26:36;;;;;;;124.20;93.00;;;;;;;4.82;100.00;99331.72;106052;1285;66910;-74
2023/01/01 05:29:04;;;;;;;123.90;91.70;;;;;;;4.81;100.00;99343.38;106075;1281;59759;-74
2023/01/01 05:31:34;;;;;;;114.70;85.00;;;;;;;4.80;100.00;99358.41;106020;1288;63763;-74
2023/01/01 05:34:01;;;;;;;114.10;81.70;;;;;;;4.81;100.00;99363.64;106017;1287;59745;-74
2023/01/01 05:36:29;;;;;;;119.40;82.50;;;;;;;4.84;100.00;99365.81;105822;1290;59002;-74
2023/01/01 05:38:56;;;;;;;117.30;85.50;;;;;;;4.87;100.00;99366.41;106070;1281;66063;-74
2023/01/01 05:41:23;;;;;;;106.30;78.90;;;;;;;4.87;100.00;99373.11;106062;1289;59034;-74
2023/01/01 05:43:50;;;;;;;112.40;83.80;;;;;;;4.87;100.00;99384.89;105608;1300;128346;-73
2023/01/01 05:46:24;;;;;;;104.60;76.90;;;;;;;4.90;100.00;99377.05;105897;1290;58951;-73
2023/01/01 05:48:52;;;;;;;102.80;75.10;;;;;;;4.93;100.00;99375.14;106032;1288;59874;-73
2023/01/01 05:51:25;;;;;;;99.10;73.10;;;;;;;4.95;100.00;99375.42;106064;1287;66899;-74
2023/01/01 05:53:53;;;;;;;100.20;72.00;;;;;;;4.95;100.00;99382.64;105880;1291;60941;-73
2023/01/01 05:56:19;;;;;;;79.90;57.80;;;;;;;4.98;100.00;99386.42;105873;1291;65318;-74
2023/01/01 05:58:45;;;;;;;55.50;40.60;;;;;;;5.02;100.00;99382.21;105804;1291;58981;-74
2023/01/01 06:01:18;;;;;;;55.90;39.50;;;;;;;5.12;100.00;99376.00;106031;1280;58889;-74
2023/01/01 06:03:45;;;;;;;32.80;25.20;;;;;;;5.25;100.00;99376.73;106056;1287;66880;-74
2023/01/01 06:06:14;;;;;;;25.80;19.60;;;;;;;5.48;100.00;99376.56;105839;1291;59865;-74
2023/01/01 06:08:40;;;;;;;14.70;11.60;;;;;;;5.76;100.00;99374.50;105750;1294;63835;-74
2023/01/01 06:11:10;;;;;;;13.80;10.60;;;;;;;6.12;100.00;99375.52;106029;1279;58998;-74
2023/01/01 06:13:37;;;;;;;12.50;9.10;;;;;;;6.46;100.00;99386.56;106061;1281;58815;-73
2023/01/01 06:16:03;;;;;;;13.80;9.10;;;;;;;6.81;100.00;99391.19;106049;1288;67024;-75
2023/01/01 06:18:31;;;;;;;10.80;8.30;;;;;;;7.16;100.00;99394.36;105622;1297;58913;-74
2023/01/01 06:21:12;;;;;;;11.20;9.30;;;;;;;7.52;100.00;99391.79;106012;1289;65139;-74
2023/01/01 06:23:39;;;;;;;11.40;8.00;;;;;;;7.75;100.00;99400.02;106037;1288;58927;-74
2023/01/01 06:26:06;;;;;;;9.90;7.90;;;;;;;7.90;100.00;99397.20;106048;1289;58840;-73
2023/01/01 06:28:33;;;;;;;11.10;8.30;;;;;;;8.03;100.00;99392.12;106044;1290;65723;-73
2023/01/01 06:31:04;;;;;;;10.20;8.00;;;;;;;8.14;100.00;99393.66;106073;1288;59055;-73
2023/01/01 06:33:31;;;;;;;10.40;7.50;;;;;;;8.23;100.00;99403.86;106037;1288;64944;-75
2023/01/01 06:35:57;;;;;;;9.50;7.30;;;;;;;8.30;100.00;99402.41;106045;1288;58945;-75
2023/01/01 06:38:23;;;;;;;9.80;7.40;;;;;;;8.36;100.00;99401.61;106056;1281;59049;-73
2023/01/01 06:40:57;;;;;;;9.90;7.30;;;;;;;8.42;100.00;99402.23;106065;1287;60220;-74
2023/01/01 06:43:24;;;;;;;11.30;7.60;;;;;;;8.49;100.00;99394.62;105875;1292;60776;-75
2023/01/01 06:46:11;;;;;;;9.80;7.40;;;;;;;8.53;100.00;99395.08;105691;1293;65053;-75
2023/01/01 06:48:37;;;;;;;9.60;7.60;;;;;;;8.58;100.00;99397.48;106048;1288;58941;-73
2023/01/01 06:51:07;;;;;;;11.00;8.10;;;;;;;8.62;100.00;99395.52;106059;1289;58946;-74
2023/01/01 06:53:33;;;;;;;10.00;7.70;;;;;;;8.62;100.00;99402.42;106036;1289;67093;-73
2023/01/01 06:55:59;;;;;;;8.40;7.00;;;;;;;8.64;100.00;99400.70;106047;1289;58917;-74
2023/01/01 06:58:25;;;;;;;8.20;7.10;;;;;;;8.66;100.00;99404.52;105741;1297;59536;-73
2023/01/01 07:00:51;;;;;;;9.90;7.30;;;;;;;8.66;100.00;99410.54;105972;1282;58857;-73
2023/01/01 07:03:17;;;;;;;8.30;7.10;;;;;;;8.67;100.00;99412.91;105843;1285;58975;-74
2023/01/01 07:05:43;;;;;;;8.40;6.80;;;;;;;8.67;100.00;99418.42;105779;1291;60911;-74
2023/01/01 07:08:09;;;;;;;8.60;7.30;;;;;;;8.66;100.00;99417.96;106069;1288;59116;-73
2023/01/01 07:10:35;;;;;;;7.40;6.70;;;;;;;8.68;100.00;99421.57;106041;1288;60580;-74
2023/01/01 07:13:02;;;;;;;8.20;7.30;;;;;;;8.69;100.00;99426.81;106033;1288;58819;-74
2023/01/01 07:15:28;;;;;;;9.30;8.30;;;;;;;8.70;100.00;99426.08;106067;1289;59104;-72
2023/01/01 07:17:54;;;;;;;12.30;8.00;;;;;;;8.70;100.00;99434.06;106097;1289;58918;-73
2023/01/01 07:20:20;;;;;;;10.80;9.30;;;;;;;8.69;100.00;99440.66;106042;1288;74011;-74
2023/01/01 07:22:46;;;;;;;10.30;8.80;;;;;;;8.67;100.00;99443.04;106044;1289;59278;-74
2023/01/01 07:25:14;;;;;;;13.50;10.70;;;;;;;8.66;100.00;99454.44;106051;1279;58989;-74
2023/01/01 07:27:40;;;;;;;13.30;11.90;;;;;;;8.65;100.00;99457.89;106056;1287;65967;-74
2023/01/01 07:30:08;;;;;;;14.80;12.30;;;;;;;8.63;100.00;99453.73;106057;1289;58920;-74
2023/01/01 07:32:35;;;;;;;14.00;12.60;;;;;;;8.63;100.00;99445.39;106037;1288;64817;-74
2023/01/01 07:35:01;;;;;;;13.10;11.20;;;;;;;8.65;100.00;99443.02;106040;1290;59000;-73
2023/01/01 07:37:27;;;;;;;14.50;10.90;;;;;;;8.67;100.00;99452.45;105776;1288;58943;-74
2023/01/01 07:39:54;;;;;;;11.20;9.80;;;;;;;8.72;100.00;99455.00;106039;1288;59039;-74
2023/01/01 07:42:20;;;;;;;14.50;11.40;;;;;;;8.77;100.00;99457.21;105844;1299;58917;-73
2023/01/01 07:44:46;;;;;;;15.30;11.00;;;;;;;8.83;100.00;99459.40;105793;1284;59188;-74
2023/01/01 07:47:23;;;;;;;14.50;10.80;;;;;;;8.91;100.00;99462.71;105847;1292;59051;-74
2023/01/01 07:49:50;;;;;;;12.90;10.50;;;;;;;9.00;100.00;99468.12;105744;1294;59290;-74
2023/01/01 07:52:16;;;;;;;12.70;9.90;;;;;;;9.12;100.00;99470.45;105772;1295;65838;-74
2023/01/01 07:54:43;;;;;;;13.00;10.80;;;;;;;9.25;100.00;99479.52;105769;1293;59019;-73
2023/01/01 07:57:09;;;;;;;12.70;9.90;;;;;;;9.34;100.00;99480.32;106054;1291;64933;-73
2023/01/01 07:59:35;;;;;;;13.00;9.60;;;;;;;9.38;100.00;99489.28;105753;1290;59100;-75
2023/01/01 08:02:02;;;;;;;12.00;10.30;;;;;;;9.40;100.00;99498.55;106031;1289;58751;-75
2023/01/01 08:04:28;;;;;;;12.40;9.90;;;;;;;9.42;100.00;99506.44;105854;1284;59038;-75
2023/01/01 08:06:55;;;;;;;15.10;10.10;;;;;;;9.44;100.00;99504.54;106038;1288;61066;-73
2023/01/01 08:09:21;;;;;;;14.30;10.20;;;;;;;9.46;100.00;99505.89;106040;1289;58988;-74
2023/01/01 08:11:47;;;;;;;12.70;10.20;;;;;;;9.47;100.00;99505.30;106048;1295;58957;-72
2023/01/01 08:14:13;;;;;;;11.90;10.00;;;;;;;9.48;100.00;99512.35;106042;1288;58948;-74
2023/01/01 08:16:40;;;;;;;16.20;11.70;;;;;;;9.49;100.00;99516.21;106038;1282;59324;-74
2023/01/01 08:19:06;;;;;;;15.00;12.90;;;;;;;9.49;100.00;99521.84;106045;1282;58924;-73
2023/01/01 08:21:33;;;;;;;15.30;13.10;;;;;;;9.50;100.00;99523.73;106037;1289;59143;-73
2023/01/01 08:24:00;;;;;;;15.00;12.30;;;;;;;9.52;100.00;99526.84;106050;1294;58965;-74
2023/01/01 08:26:29;;;;;;;14.70;12.00;;;;;;;9.54;100.00;99525.84;106051;1289;59026;-74
2023/01/01 08:28:55;;;;;;;15.80;12.10;;;;;;;9.55;100.00;99527.39;105814;1290;66064;-75
2023/01/01 08:31:23;;;;;;;14.30;12.20;;;;;;;9.55;100.00;99529.50;105836;1282;59179;-73
2023/01/01 08:33:49;;;;;;;13.60;10.90;;;;;;;9.56;100.00;99534.58;105815;1291;71260;-74
2023/01/01 08:36:17;;;;;;;19.70;12.70;;;;;;;9.55;100.00;99538.02;105843;1292;59117;-74
2023/01/01 08:38:43;;;;;;;17.30;12.80;;;;;;;9.54;100.00;99534.70;105831;1284;58968;-73
2023/01/01 08:41:09;;;;;;;15.70;12.20;;;;;;;9.53;100.00;99534.39;105831;1291;59471;-74
2023/01/01 08:43:35;;;;;;;18.40;14.40;;;;;;;9.53;100.00;99532.30;105610;1294;59012;-73
2023/01/01 08:46:01;;;;;;;22.20;17.40;;;;;;;9.50;100.00;99534.03;105567;1298;59080;-74
2023/01/01 08:48:27;;;;;;;22.50;16.90;;;;;;;9.46;100.00;99545.41;105594;1296;59387;-74
2023/01/01 08:50:55;;;;;;;22.90;18.20;;;;;;;9.41;100.00;99557.22;105808;1292;59008;-75
2023/01/01 08:53:22;;;;;;;25.30;21.80;;;;;;;9.35;100.00;99563.05;105599;1298;59576;-74
2023/01/01 08:56:05;;;;;;;20.80;18.20;;;;;;;9.31;100.00;99559.70;105834;1292;59030;-74
2023/01/01 08:58:34;;;;;;;24.80;21.10;;;;;;;9.30;100.00;99564.56;105824;1292;65005;-75
2023/01/01 09:01:01;;;;;;;25.20;19.70;;;;;;;9.27;100.00;99563.09;105823;1291;59006;-73
2023/01/01 09:03:27;;;;;;;24.50;19.90;;;;;;;9.22;100.00;99561.39;105835;1289;58816;-74
2023/01/01 09:05:53;;;;;;;45.70;32.70;;;;;;;9.17;100.00;99562.75;105860;1298;65698;-74
2023/01/01 09:08:20;;;;;;;141.00;85.40;;;;;;;9.13;100.00;99560.65;106049;1288;58965;-74
2023/01/01 09:10:47;;;;;;;118.50;72.10;;;;;;;9.10;100.00;99560.63;106038;1289;59043;-73
2023/01/01 09:13:15;;;;;;;70.30;47.00;;;;;;;9.06;100.00;99554.64;105921;1292;59064;-74
2023/01/01 09:15:42;;;;;;;58.70;41.30;;;;;;;9.02;100.00;99552.18;105880;1284;58802;-74
2023/01/01 09:18:08;;;;;;;47.00;36.30;;;;;;;8.99;100.00;99551.98;106029;1289;67440;-75
2023/01/01 09:20:35;;;;;;;47.40;34.80;;;;;;;8.99;100.00;99557.09;105764;1298;59908;-73
2023/01/01 09:23:02;;;;;;;44.40;33.60;;;;;;;9.05;100.00;99562.33;106051;1288;63885;-75
2023/01/01 09:25:28;;;;;;;37.20;31.90;;;;;;;9.12;100.00;99554.85;106057;1288;59094;-75
2023/01/01 09:28:02;;;;;;;32.10;26.40;;;;;;;9.19;100.00;99540.83;106088;1289;58877;-74
2023/01/01 09:30:28;;;;;;;31.90;26.90;;;;;;;9.24;100.00;99532.42;106053;1289;66087;-75
2023/01/01 09:32:54;;;;;;;33.70;22.80;;;;;;;9.30;100.00;99520.07;106053;1281;58971;-73
2023/01/01 09:35:20;;;;;;;26.80;21.30;;;;;;;9.37;100.00;99516.48;106059;1289;59066;-75
2023/01/01 09:37:47;;;;;;;26.90;20.40;;;;;;;9.46;100.00;99508.54;106034;1295;59047;-74
2023/01/01 09:40:52;;;;;;;30.20;21.60;;;;;;;9.56;100.00;99494.88;106042;1289;58884;-74
2023/01/01 09:43:38;;;;;;;29.70;21.10;;;;;;;9.66;100.00;99498.95;106066;1287;67329;-74
2023/01/01 09:46:06;;;;;;;24.00;17.70;;;;;;;9.77;100.00;99503.30;106065;1289;61220;-74
2023/01/01 09:48:36;;;;;;;22.80;17.70;;;;;;;9.87;100.00;99509.67;106055;1287;65123;-73
2023/01/01 09:51:06;;;;;;;19.60;15.40;;;;;;;9.97;100.00;99506.96;106037;1291;58853;-75
2023/01/01 09:53:49;;;;;;;19.60;16.10;;;;;;;10.02;100.00;99505.59;106047;1288;59234;-73
2023/01/01 09:56:24;;;;;;;19.80;15.80;;;;;;;10.11;100.00;99494.27;106050;1288;66061;-73
2023/01/01 09:58:51;;;;;;;20.20;15.30;;;;;;;10.20;100.00;99485.23;106056;1288;59694;-75
2023/01/01 10:01:39;;;;;;;20.90;16.20;;;;;;;10.29;100.00;99478.15;106058;1295;65088;-74
2023/01/01 10:04:17;;;;;;;24.30;18.80;;;;;;;10.40;100.00;99485.16;106035;1287;59101;-72
2023/01/01 10:07:05;;;;;;;24.40;18.10;;;;;;;10.51;100.00;99493.79;106060;1281;58991;-74
2023/01/01 10:09:53;;;;;;;28.80;19.20;;;;;;;10.61;100.00;99492.48;106019;1290;66971;-74
2023/01/01 10:12:34;;;;;;;26.10;18.40;;;;;;;10.73;100.00;99488.55;106061;1289;61297;-72
2023/01/01 10:15:24;;;;;;;23.90;18.00;;;;;;;10.86;100.00;99498.30;106039;1289;64749;-73
2023/01/01 10:17:58;;;;;;;27.30;20.40;;;;;;;11.00;100.00;99500.48;106049;1292;58992;-74
2023/01/01 10:20:58;;;;;;;25.70;19.00;;;;;;;11.11;100.00;99505.09;106041;1287;59025;-74
2023/01/01 10:23:30;;;;;;;25.80;18.90;;;;;;;11.24;100.00;99505.73;105424;1296;66954;-73
2023/01/01 10:26:03;;;;;;;26.30;19.40;;;;;;;11.37;100.00;99504.24;105418;1297;61137;-74
2023/01/01 10:28:38;;;;;;;24.00;17.50;;;;;;;11.49;100.00;99499.90;105433;1297;63908;-72
2023/01/01 10:31:16;;;;;;;24.80;18.20;;;;;;;11.60;100.00;99509.54;105422;1296;59104;-72
2023/01/01 10:33:45;;;;;;;24.20;17.00;;;;;;;11.71;100.00;99514.40;105412;1291;59069;-72
2023/01/01 10:36:14;;;;;;;23.90;17.40;;;;;;;11.81;100.00;99510.55;105415;1297;65940;-72
2023/01/01 10:38:40;;;;;;;22.70;16.40;;;;;;;11.93;100.00;99501.60;105438;1297;59803;-72
2023/01/01 10:41:09;;;;;;;21.20;16.90;;;;;;;12.07;100.00;99495.73;105246;1294;59035;-72
2023/01/01 10:43:35;;;;;;;20.30;15.50;;;;;;;12.19;100.00;99493.01;105421;1293;59080;-73
2023/01/01 10:46:04;;;;;;;21.00;15.70;;;;;;;12.30;100.00;99495.27;105421;1298;59042;-72
2023/01/01 10:48:32;;;;;;;23.00;16.60;;;;;;;12.42;100.00;99492.37;105426;1301;67023;-73
2023/01/01 10:50:58;;;;;;;21.70;15.50;;;;;;;12.55;100.00;99492.02;105414;1301;59758;-72
2023/01/01 10:53:29;;;;;;;20.80;14.40;;;;;;;12.67;100.00;99482.46;105421;1301;59087;-72
2023/01/01 10:56:02;;;;;;;21.80;14.40;;;;;;;12.81;100.00;99473.70;105406;1296;59067;-72
2023/01/01 10:58:44;;;;;;;20.30;15.30;;;;;;;12.98;100.00;99466.48;105480;1298;59189;-71
2023/01/01 11:01:31;;;;;;;19.40;15.00;;;;;;;13.13;100.00;99462.90;105682;1295;67057;-71
2023/01/01 11:04:01;;;;;;;16.90;13.60;;;;;;;13.25;100.00;99467.41;106019;1288;59846;-72
2023/01/01 11:06:33;;;;;;;16.30;13.40;;;;;;;13.37;100.00;99474.80;106063;1289;63980;-72
2023/01/01 11:09:05;;;;;;;19.50;13.70;;;;;;;13.50;100.00;99474.80;105903;1292;59037;-75
2023/01/01 11:11:40;;;;;;;21.40;14.10;;;;;;;13.67;100.00;99469.31;106040;1288;59054;-73
2023/01/01 11:14:20;;;;;;;17.60;13.50;;;;;;;13.82;100.00;99467.14;106038;1289;67111;-72
2023/01/01 11:16:48;;;;;;;17.90;13.70;;;;;;;13.92;100.00;99462.82;106070;1282;60838;-72
2023/01/01 11:19:28;;;;;;;19.80;14.80;;;;;;;13.95;100.00;99460.64;106057;1291;64757;-73
2023/01/01 11:21:54;;;;;;;17.30;13.90;;;;;;;13.97;100.00;99461.77;106045;1288;59367;-72
2023/01/01 11:24:25;;;;;;;17.80;13.30;;;;;;;13.94;100.00;99457.30;106035;1282;59361;-72
2023/01/01 11:27:10;;;;;;;16.60;13.00;;;;;;;13.88;100.00;99452.92;106049;1289;66968;-72
2023/01/01 11:29:36;;;;;;;17.40;13.30;;;;;;;13.83;100.00;99451.49;106048;1295;60916;-71